Time;durP1;ratioP1;P1;durP2;ratioP2;P2;SDS_P1;SDS_P2;PMS_P1;PMS_P2;Temp;Humidity;BMP_temperature;BMP_pressure;BME280_temperature;BME280_humidity;BME280_pressure;Samples;Min_cycle;Max_cycle;Signal;HPM_P1;HPM_P2
2023/09/22 00:00:22;;;;;;;10.70;5.40;;;21.90;99.90;;;;;;4987566;28;20474;-80
2023/09/22 00:02:49;;;;;;;6.90;5.50;;;21.80;99.90;;;;;;4980280;28;20475;-82
2023/09/22 00:05:23;;;;;;;5.47;4.77;;;21.80;99.90;;;;;;4982975;28;20936;-81
2023/09/22 00:07:50;;;;;;;5.83;5.33;;;21.80;99.90;;;;;;4981732;28;20502;-83
2023/09/22 00:10:17;;;;;;;8.67;5.73;;;21.80;99.90;;;;;;4992587;28;20466;-83
2023/09/22 00:12:45;;;;;;;6.90;5.57;;;21.80;99.90;;;;;;4993023;28;20483;-80
2023/09/22 00:15:12;;;;;;;6.10;5.50;;;21.80;99.90;;;;;;4974649;28;20485;-82
2023/09/22 00:17:39;;;;;;;6.10;5.50;;;21.70;99.90;;;;;;4989804;28;20482;-82
2023/09/22 00:20:08;;;;;;;7.10;6.37;;;21.80;99.90;;;;;;4993041;28;20462;-83
2023/09/22 00:22:37;;;;;;;5.90;5.30;;;21.80;99.90;;;;;;4993325;28;20498;-84
2023/09/22 00:25:04;;;;;;;5.67;4.70;;;21.80;99.90;;;;;;4993035;28;20478;-84
2023/09/22 00:27:31;;;;;;;5.40;4.83;;;21.80;99.90;;;;;;4980488;28;20506;-83
2023/09/22 00:30:00;;;;;;;6.00;5.40;;;21.80;99.90;;;;;;4976553;28;20470;-83
2023/09/22 00:32:28;;;;;;;5.90;5.40;;;21.80;99.90;;;;;;4980492;28;20530;-84
2023/09/22 00:34:55;;;;;;;6.53;5.13;;;21.90;99.90;;;;;;4974030;28;20473;-84
2023/09/22 00:37:24;;;;;;;7.53;5.53;;;21.90;99.90;;;;;;4973860;28;20458;-83
2023/09/22 00:39:54;;;;;;;7.17;5.33;;;21.90;99.90;;;;;;4984499;28;20536;-83
2023/09/22 00:42:21;;;;;;;6.00;5.27;;;21.90;99.90;;;;;;5011915;28;20453;-82
2023/09/22 00:44:51;;;;;;;5.27;4.80;;;21.80;99.90;;;;;;5013433;28;20531;-82
2023/09/22 00:47:20;;;;;;;7.30;5.97;;;21.80;99.90;;;;;;5003314;28;20498;-82
2023/09/22 00:49:53;;;;;;;7.23;6.00;;;21.80;99.90;;;;;;4988316;28;20536;-84
2023/09/22 00:52:22;;;;;;;7.70;5.83;;;21.80;99.90;;;;;;4992659;28;20474;-83
2023/09/22 00:54:52;;;;;;;5.00;4.60;;;21.80;99.90;;;;;;4993509;28;20474;-83
2023/09/22 00:57:23;;;;;;;6.30;5.70;;;21.80;99.90;;;;;;4992695;28;20474;-84
2023/09/22 00:59:52;;;;;;;7.10;6.00;;;21.80;99.90;;;;;;4993608;28;20472;-84
2023/09/22 01:02:21;;;;;;;6.47;5.80;;;21.70;99.90;;;;;;4992733;28;20815;-82
2023/09/22 01:04:51;;;;;;;5.57;5.00;;;21.80;99.90;;;;;;4992423;28;20556;-82
2023/09/22 01:07:18;;;;;;;8.40;6.40;;;21.80;99.90;;;;;;4992860;28;20820;-84
2023/09/22 01:09:45;;;;;;;6.30;5.90;;;21.70;99.90;;;;;;4993312;28;20485;-84
2023/09/22 01:12:13;;;;;;;8.03;7.33;;;21.70;99.90;;;;;;4983227;28;20465;-84
2023/09/22 01:14:42;;;;;;;6.40;5.80;;;21.70;99.90;;;;;;4991778;28;20474;-84
2023/09/22 01:17:09;;;;;;;8.00;6.60;;;21.70;99.90;;;;;;4992135;28;20470;-84
2023/09/22 01:19:36;;;;;;;6.90;6.13;;;21.70;99.90;;;;;;4993514;28;20461;-84
2023/09/22 01:22:33;;;;;;;6.90;6.20;;;21.70;99.90;;;;;;4993257;28;20497;-82
2023/09/22 01:25:00;;;;;;;7.07;6.47;;;21.70;99.90;;;;;;4972710;28;20463;-82
2023/09/22 01:27:27;;;;;;;7.67;6.97;;;21.70;99.90;;;;;;4973626;28;20474;-83
2023/09/22 01:29:55;;;;;;;11.10;6.40;;;21.60;99.90;;;;;;4973541;28;20471;-82
2023/09/22 01:32:22;;;;;;;7.17;6.57;;;21.60;99.90;;;;;;4975954;28;20549;-84
2023/09/22 01:34:49;;;;;;;6.77;6.27;;;21.60;99.90;;;;;;4980045;28;20791;-84
2023/09/22 01:37:16;;;;;;;7.07;6.57;;;21.60;99.90;;;;;;4992083;28;20481;-85
2023/09/22 01:39:44;;;;;;;7.67;6.97;;;21.60;99.90;;;;;;4992841;28;20967;-84
2023/09/22 01:42:11;;;;;;;7.43;6.63;;;21.60;99.90;;;;;;4992473;28;20854;-84
2023/09/22 01:44:40;;;;;;;7.97;7.33;;;21.60;99.90;;;;;;4993338;28;20844;-82
2023/09/22 01:47:08;;;;;;;9.57;7.30;;;21.60;99.90;;;;;;4989729;28;20553;-84
2023/09/22 01:49:35;;;;;;;9.63;8.67;;;21.60;99.90;;;;;;4972350;28;20858;-84
2023/09/22 01:52:02;;;;;;;8.80;8.10;;;21.60;99.90;;;;;;4972939;28;20858;-82
2023/09/22 01:54:29;;;;;;;9.33;8.37;;;21.60;99.90;;;;;;4973540;28;20525;-82
2023/09/22 01:56:57;;;;;;;9.17;8.27;;;21.60;99.90;;;;;;4973406;28;20475;-82
2023/09/22 01:59:24;;;;;;;8.87;7.97;;;21.60;99.90;;;;;;4973209;28;20474;-82
2023/09/22 02:01:51;;;;;;;9.60;8.30;;;21.50;99.90;;;;;;4996087;28;20469;-84
2023/09/22 02:04:18;;;;;;;8.40;7.70;;;21.50;99.90;;;;;;4995758;28;21110;-84
2023/09/22 02:06:45;;;;;;;8.80;7.87;;;21.50;99.90;;;;;;4996903;28;20998;-84
2023/09/22 02:09:12;;;;;;;8.23;7.57;;;21.50;99.90;;;;;;4996236;28;20524;-84
2023/09/22 02:11:40;;;;;;;8.63;7.77;;;21.50;99.90;;;;;;4996698;28;20531;-84
2023/09/22 02:14:09;;;;;;;7.83;7.23;;;21.40;99.90;;;;;;4995827;28;20470;-84
2023/09/22 02:16:36;;;;;;;8.13;7.53;;;21.40;99.90;;;;;;4996396;28;20473;-84
2023/09/22 02:19:02;;;;;;;9.07;8.27;;;21.40;99.90;;;;;;4993806;28;20492;-82
2023/09/22 02:21:30;;;;;;;7.80;7.20;;;21.50;99.90;;;;;;4989672;28;20457;-82
2023/09/22 02:24:03;;;;;;;8.13;7.53;;;21.50;99.90;;;;;;4969241;28;20798;-82
2023/09/22 02:26:33;;;;;;;7.93;7.33;;;21.50;99.90;;;;;;4994946;28;20454;-85
2023/09/22 02:29:00;;;;;;;7.73;7.03;;;21.50;99.90;;;;;;4988737;28;20501;-84
2023/09/22 02:31:31;;;;;;;8.43;7.63;;;21.50;99.90;;;;;;4994873;28;20474;-83
2023/09/22 02:34:00;;;;;;;8.13;6.90;;;21.50;99.90;;;;;;4995739;28;20477;-81
2023/09/22 02:36:29;;;;;;;9.07;8.37;;;21.50;99.90;;;;;;4994295;28;20473;-81
2023/09/22 02:38:56;;;;;;;13.93;12.63;;;21.50;99.90;;;;;;4993564;28;20789;-83
2023/09/22 02:41:23;;;;;;;13.90;12.40;;;21.50;99.90;;;;;;4995106;28;20465;-81
2023/09/22 02:43:51;;;;;;;12.43;11.33;;;21.50;99.90;;;;;;4995805;28;20470;-81
2023/09/22 02:46:18;;;;;;;11.57;10.40;;;21.50;99.90;;;;;;4994519;28;20501;-82
2023/09/22 02:48:48;;;;;;;32.00;27.60;;;21.50;99.90;;;;;;4979958;28;20471;-83
2023/09/22 02:51:15;;;;;;;18.67;16.77;;;21.60;99.90;;;;;;4975961;28;20533;-85
2023/09/22 02:53:42;;;;;;;10.53;9.43;;;21.50;99.90;;;;;;4975467;28;20529;-84
2023/09/22 02:56:08;;;;;;;9.87;8.50;;;21.60;99.90;;;;;;4986875;28;20474;-84
2023/09/22 02:58:35;;;;;;;9.10;8.40;;;21.60;99.90;;;;;;4993574;28;20469;-84
2023/09/22 03:01:02;;;;;;;7.80;7.20;;;21.60;99.90;;;;;;4992577;28;20485;-82
2023/09/22 03:03:32;;;;;;;7.60;7.00;;;21.60;99.90;;;;;;4991957;28;20481;-82
2023/09/22 03:06:03;;;;;;;8.07;7.37;;;21.50;99.90;;;;;;4992776;28;20470;-84
2023/09/22 03:08:33;;;;;;;7.53;6.93;;;21.60;99.90;;;;;;4993757;28;20919;-82
2023/09/22 03:11:00;;;;;;;6.87;6.37;;;21.50;99.90;;;;;;4994723;28;20477;-82
2023/09/22 03:13:27;;;;;;;8.07;7.23;;;21.60;99.90;;;;;;4994981;28;20544;-84
2023/09/22 03:15:53;;;;;;;8.07;7.40;;;21.60;99.90;;;;;;4994710;28;20520;-83
2023/09/22 03:18:20;;;;;;;7.87;7.27;;;21.60;99.90;;;;;;4993459;28;20525;-82
2023/09/22 03:20:47;;;;;;;7.17;6.30;;;21.60;99.90;;;;;;4995426;28;20539;-84
2023/09/22 03:23:16;;;;;;;6.60;5.93;;;21.60;99.90;;;;;;4985156;28;20532;-81
2023/09/22 03:25:50;;;;;;;6.47;5.97;;;21.60;99.90;;;;;;4985551;28;20482;-81
2023/09/22 03:28:20;;;;;;;5.03;4.60;;;21.60;99.90;;;;;;4994516;28;20485;-81
2023/09/22 03:30:47;;;;;;;6.33;5.83;;;21.50;99.90;;;;;;4968534;28;20545;-81
2023/09/22 03:33:14;;;;;;;9.27;8.37;;;21.60;99.90;;;;;;4995424;28;20501;-81
2023/09/22 03:35:40;;;;;;;5.83;5.40;;;21.60;99.90;;;;;;4995538;28;20466;-83
2023/09/22 03:38:09;;;;;;;6.50;5.90;;;21.50;99.90;;;;;;4995775;28;20478;-83
2023/09/22 03:40:41;;;;;;;6.00;3.90;;;21.50;99.90;;;;;;4995122;28;21006;-83
2023/09/22 03:43:08;;;;;;;4.53;4.13;;;21.50;99.90;;;;;;4995669;28;20850;-83
2023/09/22 03:45:35;;;;;;;2.37;2.17;;;21.50;99.90;;;;;;4994397;28;20470;-81
2023/09/22 03:48:09;;;;;;;2.20;2.00;;;21.40;99.90;;;;;;4995460;28;20497;-83
2023/09/22 03:50:37;;;;;;;4.53;4.13;;;21.40;99.90;;;;;;4994376;28;20485;-81
2023/09/22 03:53:04;;;;;;;2.67;2.47;;;21.30;99.90;;;;;;4994908;28;20473;-84
2023/09/22 03:55:32;;;;;;;2.50;2.30;;;21.30;99.90;;;;;;4994539;28;20486;-83
2023/09/22 03:58:03;;;;;;;2.53;2.33;;;21.20;99.90;;;;;;4994948;28;20880;-83
2023/09/22 04:00:33;;;;;;;3.90;3.50;;;21.20;99.90;;;;;;4994434;28;20553;-84
2023/09/22 04:03:01;;;;;;;2.80;2.60;;;21.10;99.90;;;;;;4995046;28;20474;-82
2023/09/22 04:05:31;;;;;;;2.50;2.23;;;21.10;99.90;;;;;;4995547;28;20549;-83
2023/09/22 04:07:58;;;;;;;3.57;2.60;;;21.00;99.90;;;;;;4994469;28;20877;-82
2023/09/22 04:10:30;;;;;;;2.40;2.20;;;21.00;99.90;;;;;;4994151;28;20481;-84
2023/09/22 04:12:57;;;;;;;2.10;1.90;;;20.90;99.90;;;;;;4994088;28;20458;-82
2023/09/22 04:15:29;;;;;;;2.43;2.23;;;20.90;99.90;;;;;;4993882;28;21027;-82
2023/09/22 04:17:58;;;;;;;3.50;2.50;;;20.80;99.90;;;;;;4993804;28;20449;-84
2023/09/22 04:20:32;;;;;;;3.27;2.47;;;20.80;99.90;;;;;;4993882;28;20528;-82
2023/09/22 04:23:04;;;;;;;2.93;2.63;;;20.70;99.90;;;;;;4992976;28;20529;-84
2023/09/22 04:25:34;;;;;;;2.87;2.57;;;20.70;99.90;;;;;;4994248;28;20470;-82
2023/09/22 04:28:11;;;;;;;2.90;2.70;;;20.70;99.90;;;;;;4993606;28;20488;-82
2023/09/22 04:31:28;;;;;;;3.10;2.80;;;20.60;99.90;;;;;;4993762;28;20474;-82
2023/09/22 04:33:56;;;;;;;3.10;2.90;;;20.50;99.90;;;;;;4991581;28;21006;-82
2023/09/22 04:36:23;;;;;;;3.80;3.10;;;20.50;99.90;;;;;;4993542;28;20878;-84
2023/09/22 04:38:51;;;;;;;4.47;3.17;;;20.50;99.90;;;;;;4993626;28;20486;-82
2023/09/22 04:41:21;;;;;;;4.00;2.70;;;20.40;99.90;;;;;;4993927;28;20470;-82
2023/09/22 04:43:52;;;;;;;4.90;3.10;;;20.40;99.90;;;;;;4993519;28;21073;-82
2023/09/22 16:46:03;;;;;;;3.33;2.47;;;19.60;99.90;;;;;;5073191;28;20629;-85
2023/09/22 16:48:32;;;;;;;3.73;2.70;;;19.60;99.90;;;;;;5072356;28;20485;-83
2023/09/22 16:50:59;;;;;;;2.20;2.00;;;19.60;99.90;;;;;;5074588;28;20462;-79
2023/09/22 16:53:26;;;;;;;7.53;5.97;;;19.60;99.90;;;;;;5055893;28;20462;-80
2023/09/22 16:55:53;;;;;;;6.07;5.40;;;19.50;99.90;;;;;;5072880;28;20490;-81
2023/09/22 16:58:20;;;;;;;4.57;3.17;;;19.50;99.90;;;;;;5073721;28;20545;-84
2023/09/22 17:00:48;;;;;;;5.67;4.43;;;19.50;99.90;;;;;;5073643;28;20466;-83
2023/09/22 17:03:15;;;;;;;5.20;4.70;;;19.50;99.90;;;;;;5073834;28;20557;-81
2023/09/22 17:05:49;;;;;;;6.10;3.90;;;19.50;99.90;;;;;;5073179;28;20826;-84
2023/09/22 17:08:17;;;;;;;4.70;4.10;;;19.50;99.90;;;;;;5073734;28;20465;-84
2023/09/22 17:10:44;;;;;;;3.33;3.03;;;19.50;99.90;;;;;;5062283;28;20494;-81
2023/09/22 17:13:12;;;;;;;3.10;2.77;;;19.50;99.90;;;;;;5073996;28;20466;-82
2023/09/22 17:15:41;;;;;;;3.90;2.87;;;19.50;99.90;;;;;;5072805;28;20489;-83
2023/09/22 17:18:08;;;;;;;2.53;2.30;;;19.50;99.90;;;;;;5073750;28;20458;-83
2023/09/22 17:20:39;;;;;;;4.30;2.83;;;19.50;99.90;;;;;;5072740;28;20466;-84
2023/09/22 17:23:08;;;;;;;5.20;3.20;;;19.50;99.90;;;;;;5072221;28;20789;-82
2023/09/22 17:25:52;;;;;;;5.10;3.47;;;19.50;99.90;;;;;;5061121;28;20478;-82
2023/09/22 17:28:20;;;;;;;3.67;2.77;;;19.40;99.90;;;;;;5073121;28;20462;-82
2023/09/22 17:30:47;;;;;;;3.30;2.87;;;19.40;99.90;;;;;;5063294;28;20489;-83
2023/09/22 17:33:16;;;;;;;3.33;3.03;;;19.40;99.90;;;;;;5076151;28;20517;-83
2023/09/22 17:35:43;;;;;;;4.00;3.50;;;19.40;99.90;;;;;;5074711;28;20574;-84
2023/09/22 17:38:19;;;;;;;6.03;4.10;;;19.40;99.90;;;;;;5065637;28;20470;-83
2023/09/22 17:40:47;;;;;;;3.73;3.20;;;19.40;99.90;;;;;;5074832;28;20480;-83
2023/09/22 17:43:15;;;;;;;4.73;4.07;;;19.40;99.90;;;;;;5066494;28;20557;-82
2023/09/22 17:45:42;;;;;;;7.40;4.20;;;19.40;99.90;;;;;;5075687;28;21032;-83
2023/09/22 17:48:09;;;;;;;4.57;4.17;;;19.40;99.90;;;;;;5076858;28;20477;-83
2023/09/22 17:50:37;;;;;;;4.93;3.67;;;19.30;99.90;;;;;;5076644;28;20500;-84
2023/09/22 17:53:14;;;;;;;6.57;3.97;;;19.40;99.90;;;;;;5076027;28;20454;-83
2023/09/22 17:55:45;;;;;;;4.50;4.13;;;19.30;99.90;;;;;;5076572;28;20470;-83
2023/09/22 17:58:13;;;;;;;7.87;6.30;;;19.30;99.90;;;;;;5075375;28;20527;-84
2023/09/22 18:00:41;;;;;;;6.00;5.40;;;19.30;99.90;;;;;;5066263;28;20470;-83
2023/09/22 18:03:08;;;;;;;5.40;4.90;;;19.30;99.90;;;;;;5076085;28;20834;-84
2023/09/22 18:05:37;;;;;;;5.70;4.07;;;19.40;99.90;;;;;;5066234;28;20485;-83
2023/09/22 18:08:09;;;;;;;4.00;3.70;;;19.30;99.90;;;;;;5075193;28;20506;-83
2023/09/22 18:10:38;;;;;;;7.13;4.83;;;19.30;99.90;;;;;;5075584;28;20532;-83
2023/09/22 18:13:23;;;;;;;5.93;4.10;;;19.30;99.90;;;;;;5075578;28;20463;-83
2023/09/22 18:15:50;;;;;;;4.37;3.83;;;19.30;99.90;;;;;;5076347;28;20501;-84
2023/09/22 18:18:19;;;;;;;7.03;4.87;;;19.30;99.90;;;;;;5075635;28;20477;-82
2023/09/22 18:20:52;;;;;;;5.50;4.30;;;19.30;99.90;;;;;;5076637;28;21031;-83
2023/09/22 18:23:19;;;;;;;4.60;4.17;;;19.30;99.90;;;;;;5075432;28;20465;-83
2023/09/22 18:25:52;;;;;;;6.37;4.07;;;19.30;99.90;;;;;;5069609;28;20466;-83
2023/09/22 18:28:36;;;;;;;4.27;3.83;;;19.30;99.90;;;;;;5075215;28;21016;-81
2023/09/22 18:31:05;;;;;;;4.70;3.80;;;19.30;99.90;;;;;;5074408;28;20964;-84
2023/09/22 18:33:34;;;;;;;4.07;3.77;;;19.30;99.90;;;;;;5065394;28;20474;-84
2023/09/22 18:36:07;;;;;;;3.97;3.63;;;19.30;99.90;;;;;;5065321;28;20486;-83
2023/09/22 18:38:37;;;;;;;6.17;5.57;;;19.30;99.90;;;;;;5056211;28;20463;-83
2023/09/22 18:41:07;;;;;;;6.30;4.70;;;19.30;99.90;;;;;;5042916;28;20511;-84
2023/09/22 18:43:40;;;;;;;8.07;6.87;;;19.30;99.90;;;;;;5046782;28;20463;-83
2023/09/22 18:46:08;;;;;;;10.53;9.40;;;19.30;99.90;;;;;;5055477;28;20480;-84
2023/09/22 18:48:35;;;;;;;5.97;3.97;;;19.30;99.90;;;;;;5054064;28;20522;-84
2023/09/22 18:51:04;;;;;;;6.70;4.37;;;19.30;99.90;;;;;;5046786;28;20475;-81
2023/09/22 18:53:38;;;;;;;6.10;4.13;;;19.20;99.90;;;;;;5054950;28;20475;-81
2023/09/22 18:56:05;;;;;;;5.20;4.73;;;19.20;99.90;;;;;;5071059;28;20565;-82
2023/09/22 18:58:34;;;;;;;4.90;4.53;;;19.20;99.90;;;;;;5071853;28;20609;-82
2023/09/22 19:01:07;;;;;;;6.10;3.90;;;19.20;99.90;;;;;;5053447;28;20502;-81
2023/09/22 19:03:36;;;;;;;5.30;4.80;;;19.20;99.90;;;;;;5054698;28;20475;-83
2023/09/22 19:06:04;;;;;;;4.50;4.10;;;19.10;99.90;;;;;;5056970;28;20968;-83
2023/09/22 19:08:36;;;;;;;4.87;4.37;;;19.10;99.90;;;;;;5066384;28;20589;-84
2023/09/22 19:11:03;;;;;;;5.27;4.77;;;19.10;99.90;;;;;;5075126;28;20450;-81
2023/09/22 19:13:31;;;;;;;3.30;3.00;;;19.10;99.90;;;;;;5075169;28;20462;-82
2023/09/22 19:16:03;;;;;;;4.63;3.83;;;19.10;99.90;;;;;;5074497;28;20558;-81
2023/09/22 19:18:47;;;;;;;6.10;4.10;;;19.00;99.90;;;;;;5064059;28;20470;-83
2023/09/22 19:21:15;;;;;;;4.47;4.07;;;19.00;99.90;;;;;;5074009;28;20555;-83
2023/09/22 19:23:54;;;;;;;4.77;4.37;;;19.00;99.90;;;;;;5065575;28;20456;-82
2023/09/22 19:26:54;;;;;;;6.30;4.07;;;19.00;99.90;;;;;;5054745;28;20532;-82
2023/09/22 19:29:22;;;;;;;4.27;3.97;;;18.90;99.90;;;;;;5055329;28;20459;-82
2023/09/22 19:31:49;;;;;;;9.80;8.57;;;18.90;99.90;;;;;;5066727;28;20581;-80
2023/09/22 19:34:23;;;;;;;14.93;12.17;;;18.90;99.90;;;;;;5051164;28;20835;-82
2023/09/22 19:36:50;;;;;;;8.67;7.77;;;18.90;99.90;;;;;;5046631;28;20479;-82
2023/09/22 19:39:19;;;;;;;5.13;4.63;;;18.90;99.90;;;;;;5065852;28;20474;-81
2023/09/22 19:41:48;;;;;;;5.47;4.93;;;18.90;99.90;;;;;;5067943;28;20971;-84
2023/09/22 19:44:15;;;;;;;6.93;4.70;;;18.90;99.90;;;;;;5058816;28;20816;-81
2023/09/22 19:46:45;;;;;;;5.97;5.47;;;18.80;99.90;;;;;;5056038;28;20988;-83
2023/09/22 19:49:12;;;;;;;8.40;6.30;;;18.80;99.90;;;;;;5050565;28;20956;-83
2023/09/22 19:51:40;;;;;;;7.30;5.67;;;18.80;99.90;;;;;;5052295;28;20478;-82
2023/09/22 19:54:08;;;;;;;6.67;5.97;;;18.80;99.90;;;;;;5058457;28;20497;-82
2023/09/22 19:59:57;;;;;;;6.27;5.77;;;18.80;99.90;;;;;;5060540;28;20470;-81
2023/09/22 20:02:28;;;;;;;6.90;5.73;;;18.80;99.90;;;;;;5057149;28;20475;-82
2023/09/22 20:04:55;;;;;;;5.10;4.70;;;18.80;99.90;;;;;;5056338;28;20554;-83
2023/09/22 20:07:26;;;;;;;5.07;4.57;;;18.80;99.90;;;;;;5055815;28;20463;-83
2023/09/22 20:10:40;;;;;;;4.40;4.00;;;18.80;99.90;;;;;;5049591;28;20479;-81
2023/09/22 20:13:10;;;;;;;9.30;8.40;;;18.80;99.90;;;;;;5002032;28;20984;-81
2023/09/22 20:15:44;;;;;;;6.20;5.57;;;18.80;99.90;;;;;;4984332;28;20485;-83
2023/09/22 20:18:17;;;;;;;5.00;4.60;;;18.70;99.90;;;;;;4987682;28;20532;-80
2023/09/22 20:20:51;;;;;;;5.63;5.13;;;18.70;99.90;;;;;;4997146;28;20481;-81
2023/09/22 20:23:19;;;;;;;5.33;4.83;;;18.70;99.90;;;;;;5057332;28;20506;-81
2023/09/22 20:25:46;;;;;;;5.10;4.70;;;18.70;99.90;;;;;;5073207;28;20762;-82
2023/09/22 20:28:24;;;;;;;4.93;4.43;;;18.70;99.90;;;;;;5072573;28;20471;-83
2023/09/22 20:30:59;;;;;;;4.20;3.90;;;18.70;99.90;;;;;;5073192;28;20463;-81
2023/09/22 20:33:26;;;;;;;5.10;4.50;;;18.70;99.90;;;;;;5068301;28;20951;-82
2023/09/22 20:36:03;;;;;;;5.40;4.90;;;18.70;99.90;;;;;;5073257;28;20470;-81
2023/09/22 20:38:31;;;;;;;6.43;5.10;;;18.70;99.90;;;;;;5059034;28;20479;-83
2023/09/22 20:40:59;;;;;;;4.50;4.10;;;18.70;99.90;;;;;;5069696;28;20530;-81
2023/09/22 20:43:31;;;;;;;4.37;4.07;;;18.70;99.90;;;;;;5072752;28;20476;-80
2023/09/22 20:46:00;;;;;;;5.93;4.20;;;18.70;99.90;;;;;;5072490;28;20999;-83
2023/09/22 20:48:30;;;;;;;5.60;4.70;;;18.70;99.90;;;;;;5072552;28;20979;-83
2023/09/22 20:51:03;;;;;;;7.30;5.80;;;18.70;99.90;;;;;;5072165;28;20979;-80
2023/09/22 20:53:31;;;;;;;6.43;5.03;;;18.70;99.90;;;;;;5044660;28;20478;-80
2023/09/22 20:55:59;;;;;;;5.43;4.73;;;18.60;99.90;;;;;;5072769;28;20526;-80
2023/09/22 20:58:32;;;;;;;4.50;4.13;;;18.70;99.90;;;;;;5070388;28;20470;-81
2023/09/22 21:01:12;;;;;;;6.60;4.60;;;18.70;99.90;;;;;;5071312;28;20538;-80
2023/09/22 21:03:39;;;;;;;6.03;4.83;;;18.70;99.90;;;;;;5063210;28;20549;-83
2023/09/22 21:06:06;;;;;;;6.10;5.50;;;18.60;99.90;;;;;;5071689;28;20948;-80
2023/09/22 21:08:36;;;;;;;5.73;5.23;;;18.60;99.90;;;;;;5074031;28;20952;-80
2023/09/22 21:11:03;;;;;;;5.70;4.40;;;18.70;99.90;;;;;;5072943;28;20458;-84
2023/09/22 21:13:30;;;;;;;5.70;5.20;;;18.60;99.90;;;;;;5069866;28;20497;-83
2023/09/22 21:15:57;;;;;;;4.80;4.40;;;18.60;99.90;;;;;;5071700;28;20494;-82
2023/09/22 21:18:25;;;;;;;4.63;4.23;;;18.60;99.90;;;;;;5035644;28;20503;-82
2023/09/22 21:20:52;;;;;;;4.97;4.57;;;18.60;99.90;;;;;;5065338;28;20471;-83
2023/09/22 21:23:19;;;;;;;5.83;5.33;;;18.60;99.90;;;;;;5063825;28;20466;-83
2023/09/22 21:25:49;;;;;;;6.83;5.20;;;18.60;99.90;;;;;;5069655;28;21032;-84
2023/09/22 21:28:18;;;;;;;7.17;5.80;;;18.60;99.90;;;;;;5062271;28;20466;-83
2023/09/22 21:30:47;;;;;;;7.03;5.53;;;18.60;99.90;;;;;;5036386;28;20484;-82
2023/09/22 21:33:14;;;;;;;6.07;5.50;;;18.60;99.90;;;;;;5070103;28;20469;-82
2023/09/22 21:35:44;;;;;;;5.63;4.87;;;18.60;99.90;;;;;;5062297;28;20547;-84
2023/09/22 21:38:14;;;;;;;4.70;4.30;;;18.60;99.90;;;;;;5058012;28;20980;-84
2023/09/22 21:40:42;;;;;;;4.80;4.40;;;18.60;99.90;;;;;;5057427;28;20535;-84
2023/09/22 21:43:11;;;;;;;4.80;4.27;;;18.60;99.90;;;;;;5072275;28;20508;-82
2023/09/22 21:45:39;;;;;;;5.70;4.90;;;18.60;99.90;;;;;;5072481;28;20470;-84
2023/09/22 21:48:07;;;;;;;4.30;3.90;;;18.60;99.90;;;;;;5071733;28;20956;-84
2023/09/22 21:50:36;;;;;;;4.53;4.10;;;18.60;99.90;;;;;;5061626;28;20467;-84
2023/09/22 21:53:04;;;;;;;5.07;4.57;;;18.60;99.90;;;;;;5071263;28;20466;-82
2023/09/22 21:55:31;;;;;;;4.57;4.17;;;18.60;99.90;;;;;;5072084;28;20489;-83
2023/09/22 21:58:00;;;;;;;5.50;4.63;;;18.60;99.90;;;;;;5067310;28;20475;-84
2023/09/22 22:00:28;;;;;;;6.50;4.43;;;18.60;99.90;;;;;;5054469;28;20469;-82
2023/09/22 22:02:56;;;;;;;4.50;4.20;;;18.60;99.90;;;;;;5068850;28;20553;-81
2023/09/22 22:05:23;;;;;;;4.27;3.90;;;18.60;99.90;;;;;;5070445;28;20474;-82
2023/09/22 22:07:51;;;;;;;4.07;3.70;;;18.60;99.90;;;;;;5072166;28;20512;-82
2023/09/22 22:10:18;;;;;;;4.73;4.43;;;18.60;99.90;;;;;;5054158;28;20498;-83
2023/09/22 22:12:48;;;;;;;4.63;4.23;;;18.60;99.90;;;;;;5070800;28;20478;-81
2023/09/22 22:15:16;;;;;;;5.63;4.10;;;18.50;99.90;;;;;;5071499;28;20474;-82
2023/09/22 22:17:49;;;;;;;4.60;4.20;;;18.60;99.90;;;;;;5074315;28;20548;-85
2023/09/22 22:20:23;;;;;;;4.50;4.10;;;18.60;99.90;;;;;;5075139;28;20520;-85
2023/09/22 22:22:51;;;;;;;4.20;3.80;;;18.60;99.90;;;;;;5075642;28;20470;-83
2023/09/22 22:25:20;;;;;;;7.90;4.70;;;18.60;99.90;;;;;;5075068;28;20467;-83
2023/09/22 22:27:48;;;;;;;4.13;3.73;;;18.60;99.90;;;;;;5073994;28;20531;-83
2023/09/22 22:30:20;;;;;;;5.90;4.90;;;18.50;99.90;;;;;;5074402;28;20474;-82
2023/09/22 22:32:50;;;;;;;4.00;3.60;;;18.50;99.90;;;;;;5075673;28;20470;-84
2023/09/22 22:35:17;;;;;;;4.60;4.10;;;18.50;99.90;;;;;;5075092;28;20482;-84
2023/09/22 22:37:44;;;;;;;4.13;3.73;;;18.50;99.90;;;;;;5074640;28;20469;-84
2023/09/22 22:40:13;;;;;;;7.07;6.33;;;18.50;99.90;;;;;;5075463;28;20473;-82
2023/09/22 22:42:50;;;;;;;5.43;4.93;;;18.50;99.90;;;;;;5073138;28;20474;-82
2023/09/22 22:45:21;;;;;;;6.90;4.00;;;18.50;99.90;;;;;;5070048;28;20546;-85
2023/09/22 22:47:53;;;;;;;5.10;4.20;;;18.50;99.90;;;;;;5045439;28;20955;-83
2023/09/22 22:50:20;;;;;;;5.33;4.93;;;18.50;99.90;;;;;;5070592;28;20458;-83
2023/09/22 22:52:47;;;;;;;4.30;4.00;;;18.50;99.90;;;;;;5075257;28;20462;-83
2023/09/22 22:55:16;;;;;;;4.87;4.47;;;18.50;99.90;;;;;;5065954;28;20796;-80
2023/09/22 22:57:47;;;;;;;5.00;4.37;;;18.50;99.90;;;;;;5071836;28;20493;-82
2023/09/22 23:00:14;;;;;;;3.83;3.53;;;18.50;99.90;;;;;;5067131;28;20466;-85
2023/09/22 23:02:43;;;;;;;4.90;4.50;;;18.50;99.90;;;;;;5062464;28;20469;-82
2023/09/22 23:06:07;;;;;;;4.90;4.40;;;18.50;99.90;;;;;;5071427;28;20493;-83
2023/09/22 23:09:00;;;;;;;4.87;4.47;;;18.50;99.90;;;;;;5013295;28;20474;-82
2023/09/22 23:11:33;;;;;;;3.93;3.60;;;18.40;99.90;;;;;;5049052;28;20551;-84
2023/09/22 23:14:13;;;;;;;3.90;3.60;;;18.40;99.90;;;;;;5027665;28;20477;-81
2023/09/22 23:16:41;;;;;;;4.37;3.97;;;18.40;99.90;;;;;;5049974;28;20474;-83
2023/09/22 23:19:33;;;;;;;4.87;4.47;;;18.40;99.90;;;;;;5056814;28;20475;-83
2023/09/22 23:22:00;;;;;;;6.03;4.27;;;18.50;99.90;;;;;;5066338;28;20545;-83
2023/09/22 23:24:32;;;;;;;5.70;5.20;;;18.40;99.90;;;;;;5071335;28;20516;-80
2023/09/22 23:26:59;;;;;;;8.10;5.97;;;18.50;99.90;;;;;;5069243;28;20462;-81
2023/09/22 23:29:27;;;;;;;4.63;4.23;;;18.40;99.90;;;;;;5072256;28;20810;-81
2023/09/22 23:31:54;;;;;;;7.50;6.17;;;18.40;99.90;;;;;;5072507;28;20552;-84
2023/09/22 23:34:24;;;;;;;5.87;5.30;;;18.40;99.90;;;;;;5075221;28;20547;-83
2023/09/22 23:36:52;;;;;;;5.90;4.73;;;18.40;99.90;;;;;;5072978;28;20473;-84
2023/09/22 23:39:23;;;;;;;4.60;4.20;;;18.40;99.90;;;;;;5064394;28;20481;-84
2023/09/22 23:41:57;;;;;;;4.00;3.70;;;18.40;99.90;;;;;;5069838;28;20481;-82
2023/09/22 23:44:27;;;;;;;6.00;5.40;;;18.40;99.90;;;;;;5053141;28;20482;-82
2023/09/22 23:47:04;;;;;;;;;;;;;;;;;;;;;
2023/09/22 23:49:34;;;;;;;4.53;4.13;;;18.40;99.90;;;;;;5026206;28;20773;-84
2023/09/22 23:52:19;;;;;;;;;;;;;;;;;;;;;
2023/09/22 23:54:47;;;;;;;4.67;4.20;;;18.40;99.90;;;;;;5019641;28;20483;-84
2023/09/22 23:57:17;;;;;;;6.23;5.73;;;18.40;99.90;;;;;;5052191;28;20463;-82
2023/09/22 23:59:47;;;;;;;11.63;9.53;;;18.40;99.90;;;;;;5053648;28;21123;-82
